createdAt,value
2018-05-02T00:01:09.395Z,85.80
2018-05-02T00:03:37.815Z,86.21
2018-05-02T00:06:07.114Z,87.41
2018-05-02T00:08:36.276Z,87.11
2018-05-02T00:11:05.417Z,87.20
2018-05-02T00:13:34.628Z,87.57
2018-05-02T00:16:03.782Z,88.13
2018-05-02T00:18:32.210Z,87.85
2018-05-02T00:21:01.360Z,87.91
2018-05-02T00:23:29.777Z,87.77
2018-05-02T00:25:58.173Z,88.07
2018-05-02T00:28:27.351Z,88.20
2018-05-02T00:30:55.762Z,88.42
2018-05-02T00:33:24.943Z,88.67
2018-05-02T00:35:53.433Z,88.50
2018-05-02T00:38:21.829Z,88.80
2018-05-02T00:40:50.981Z,89.00
2018-05-02T00:43:19.406Z,89.58
2018-05-02T00:45:48.594Z,89.75
2018-05-02T00:48:17.005Z,89.57
2018-05-02T00:50:46.166Z,89.72
2018-05-02T00:53:14.573Z,89.71
2018-05-02T00:55:43.770Z,89.63
2018-05-02T00:58:12.234Z,89.60
2018-05-02T01:00:40.630Z,89.57
2018-05-02T01:03:09.064Z,89.50
2018-05-02T01:05:37.451Z,89.77
2018-05-02T01:08:05.849Z,89.60
2018-05-02T01:10:34.268Z,89.47
2018-05-02T01:13:03.510Z,89.53
2018-05-02T01:15:31.928Z,89.46
2018-05-02T01:18:00.347Z,89.35
2018-05-02T01:20:29.586Z,89.46
2018-05-02T01:22:58.002Z,88.95
2018-05-02T01:25:26.413Z,88.87
2018-05-02T01:27:55.610Z,89.33
2018-05-02T01:30:24.033Z,89.67
2018-05-02T01:32:52.443Z,89.16
2018-05-02T01:35:20.870Z,88.98
2018-05-02T01:37:50.059Z,89.32
2018-05-02T01:40:18.470Z,89.02
2018-05-02T01:42:46.943Z,89.21
2018-05-02T01:45:16.130Z,89.25
2018-05-02T01:47:44.572Z,89.10
2018-05-02T01:50:13.827Z,89.38
2018-05-02T01:52:43.000Z,89.66
2018-05-02T01:55:11.406Z,89.98
2018-05-02T01:57:40.552Z,90.11
2018-05-02T02:00:08.974Z,90.32
2018-05-02T02:02:37.432Z,90.58
2018-05-02T02:05:05.885Z,90.31
2018-05-02T02:07:34.308Z,90.57
2018-05-02T02:10:02.707Z,90.46
2018-05-02T02:12:31.161Z,90.90
2018-05-02T02:14:59.600Z,91.10
2018-05-02T02:17:28.762Z,91.01
2018-05-02T02:19:57.156Z,90.96
2018-05-02T02:22:25.681Z,91.18
2018-05-02T02:24:54.089Z,91.19
2018-05-02T02:27:22.507Z,91.01
2018-05-02T02:29:50.985Z,91.12
2018-05-02T02:32:19.378Z,91.08
2018-05-02T02:34:47.794Z,91.38
2018-05-02T02:37:16.959Z,91.31
2018-05-02T02:39:45.356Z,91.43
2018-05-02T02:42:13.784Z,91.58
2018-05-02T02:44:42.174Z,91.50
2018-05-02T02:47:10.596Z,91.47
2018-05-02T02:49:39.002Z,91.49
2018-05-02T02:52:08.158Z,91.63
2018-05-02T02:54:36.579Z,91.67
2018-05-02T02:57:04.984Z,91.70
2018-05-02T02:59:34.129Z,91.58
2018-05-02T03:02:02.536Z,91.63
2018-05-02T03:04:30.928Z,91.58
2018-05-02T03:06:59.364Z,91.31
2018-05-02T03:09:27.785Z,90.21
2018-05-02T03:11:56.263Z,89.37
2018-05-02T03:14:24.676Z,88.87
2018-05-02T03:16:53.919Z,88.67
2018-05-02T03:19:22.326Z,88.21
2018-05-02T03:21:50.723Z,87.26
2018-05-02T03:24:19.118Z,87.15
2018-05-02T03:26:47.498Z,87.61
2018-05-02T03:29:15.968Z,87.50
2018-05-02T03:31:44.410Z,87.42
2018-05-02T03:34:12.848Z,86.85
2018-05-02T03:36:42.018Z,87.17
2018-05-02T03:39:10.449Z,86.83
2018-05-02T03:41:39.610Z,86.83
2018-05-02T03:44:08.019Z,86.94
2018-05-02T03:46:36.518Z,86.53
2018-05-02T03:49:05.687Z,85.94
2018-05-02T03:51:34.127Z,85.68
2018-05-02T03:54:02.582Z,85.29
2018-05-02T03:56:31.752Z,85.54
2018-05-02T03:59:00.193Z,85.80
2018-05-02T04:01:46.544Z,85.53
2018-05-02T04:04:33.455Z,84.82
2018-05-02T04:07:16.719Z,84.18
2018-05-02T04:09:45.135Z,84.58
2018-05-02T04:12:15.428Z,84.91
2018-05-02T04:14:43.899Z,84.63
2018-05-02T04:17:12.277Z,84.62
2018-05-02T04:19:41.414Z,83.88
2018-05-02T04:22:09.810Z,84.39
2018-05-02T04:24:38.499Z,83.58
2018-05-02T04:27:06.931Z,83.70
2018-05-02T04:29:36.169Z,84.39
2018-05-02T04:32:04.562Z,84.60
2018-05-02T04:34:33.009Z,84.72
2018-05-02T04:37:02.173Z,84.91
2018-05-02T04:39:30.616Z,84.28
2018-05-02T04:41:59.040Z,83.57
2018-05-02T04:44:27.785Z,82.65
2018-05-02T04:46:56.187Z,81.96
2018-05-02T04:49:24.591Z,82.00
2018-05-02T04:51:52.999Z,82.64
2018-05-02T04:54:22.146Z,81.45
2018-05-02T04:56:50.534Z,81.88
2018-05-02T04:59:18.948Z,81.14
2018-05-02T05:01:47.418Z,79.67
2018-05-02T05:04:15.838Z,79.46
2018-05-02T05:06:45.071Z,78.03
2018-05-02T05:09:13.446Z,77.70
2018-05-02T05:11:41.833Z,77.72
2018-05-02T05:14:10.223Z,75.80
2018-05-02T05:16:38.663Z,75.52
2018-05-02T05:19:07.051Z,76.00
2018-05-02T05:24:03.848Z,76.31
2018-05-02T05:26:32.244Z,75.60
2018-05-02T05:29:00.629Z,76.56
2018-05-02T05:31:29.015Z,77.09
2018-05-02T05:33:57.416Z,76.54
2018-05-02T05:36:25.874Z,77.36
2018-05-02T05:38:54.252Z,77.57
2018-05-02T05:41:22.665Z,77.55
2018-05-02T05:43:51.057Z,76.41
2018-05-02T05:46:19.454Z,77.38
2018-05-02T05:48:47.932Z,76.32
2018-05-02T05:51:16.363Z,75.87
2018-05-02T05:53:44.770Z,76.09
2018-05-02T05:56:13.317Z,75.46
2018-05-02T05:58:41.775Z,75.20
2018-05-02T06:01:10.164Z,74.88
2018-05-02T06:03:38.853Z,73.12
2018-05-02T06:06:08.043Z,73.34
2018-05-02T06:08:36.445Z,73.42
2018-05-02T06:11:05.605Z,72.73
2018-05-02T06:13:35.765Z,71.46
2018-05-02T06:16:04.156Z,71.27
2018-05-02T06:18:33.501Z,71.53
2018-05-02T06:21:01.891Z,71.15
2018-05-02T06:23:30.290Z,69.97
2018-05-02T06:25:58.685Z,69.87
2018-05-02T06:28:27.099Z,68.93
2018-05-02T06:30:56.246Z,67.75
2018-05-02T06:33:24.670Z,68.35
2018-05-02T06:35:53.847Z,67.82
2018-05-02T06:38:22.271Z,66.13
2018-05-02T06:40:51.609Z,64.38
2018-05-02T06:43:20.033Z,63.23
2018-05-02T06:45:48.475Z,63.27
2018-05-02T06:48:16.899Z,62.26
2018-05-02T06:50:45.314Z,59.05
2018-05-02T06:53:14.468Z,58.00
2018-05-02T06:55:42.938Z,57.04
2018-05-02T06:58:14.550Z,56.06
2018-05-02T07:00:43.798Z,54.42
2018-05-02T07:03:12.168Z,52.73
2018-05-02T07:05:40.591Z,51.06
2018-05-02T07:08:09.983Z,51.20
2018-05-02T07:10:38.378Z,47.15
2018-05-02T07:13:07.082Z,46.40
2018-05-02T07:15:35.474Z,46.40
2018-05-02T07:18:04.887Z,44.71
2018-05-02T07:20:34.055Z,43.77
2018-05-02T07:23:02.774Z,43.96
2018-05-02T07:25:31.941Z,46.55
2018-05-02T07:28:00.356Z,43.90
2018-05-02T07:30:28.834Z,43.10
2018-05-02T07:32:58.126Z,41.09
2018-05-02T07:35:26.441Z,41.62
2018-05-02T07:37:55.834Z,40.97
2018-05-02T07:40:25.953Z,42.54
2018-05-02T07:42:55.901Z,41.69
2018-05-02T07:45:26.304Z,41.32
2018-05-02T07:47:56.071Z,40.80
2018-05-02T07:50:24.592Z,42.90
2018-05-02T07:52:56.666Z,40.72
2018-05-02T07:55:25.123Z,41.31
2018-05-02T07:57:54.594Z,41.13
2018-05-02T08:00:23.011Z,39.50
2018-05-02T08:02:51.428Z,41.33
2018-05-02T08:05:20.010Z,42.15
2018-05-02T08:07:48.454Z,42.77
2018-05-02T08:10:17.357Z,43.74
2018-05-02T08:12:45.982Z,44.25
2018-05-02T08:15:14.410Z,44.03
2018-05-02T08:17:43.922Z,45.99
2018-05-02T08:20:13.252Z,46.66
2018-05-02T08:22:41.655Z,47.27
2018-05-02T08:25:10.154Z,47.60
2018-05-02T08:27:39.549Z,47.83
2018-05-02T08:30:10.496Z,46.43
2018-05-02T08:32:38.926Z,42.27
2018-05-02T08:35:08.076Z,41.73
2018-05-02T08:37:38.222Z,43.94
2018-05-02T08:40:06.623Z,38.22
2018-05-02T08:42:38.029Z,39.65
2018-05-02T08:45:06.763Z,40.59
2018-05-02T08:47:35.154Z,38.58
2018-05-02T08:50:03.817Z,36.14
2018-05-02T08:52:33.023Z,35.85
2018-05-02T08:55:02.172Z,34.42
2018-05-02T08:57:30.647Z,35.83
2018-05-02T08:59:59.017Z,34.34
2018-05-02T09:02:27.403Z,34.77
2018-05-02T09:04:55.830Z,36.28
2018-05-02T09:07:24.239Z,37.76
2018-05-02T09:09:55.479Z,32.68
2018-05-02T09:12:23.966Z,32.71
2018-05-02T09:14:53.199Z,31.54
2018-05-02T09:17:21.581Z,34.47
2018-05-02T09:19:50.914Z,32.51
2018-05-02T09:22:19.305Z,31.87
2018-05-02T09:24:47.958Z,31.54
2018-05-02T09:27:16.351Z,32.35
2018-05-02T09:29:45.459Z,32.37
2018-05-02T09:32:13.870Z,32.23
2018-05-02T09:34:42.244Z,33.35
2018-05-02T09:37:10.861Z,30.73
2018-05-02T09:39:40.015Z,30.47
2018-05-02T09:42:08.504Z,32.15
2018-05-02T09:44:37.773Z,32.99
2018-05-02T09:47:06.879Z,33.06
2018-05-02T09:49:35.255Z,31.42
2018-05-02T09:52:03.703Z,31.92
2018-05-02T09:54:32.862Z,33.97
2018-05-02T09:57:01.262Z,33.78
2018-05-02T09:59:29.662Z,31.43
2018-05-02T10:01:58.063Z,34.99
2018-05-02T10:04:26.652Z,30.39
2018-05-02T10:06:56.398Z,31.48
2018-05-02T10:09:24.813Z,31.50
2018-05-02T10:11:53.212Z,30.71
2018-05-02T10:14:21.677Z,30.78
2018-05-02T10:16:50.097Z,31.46
2018-05-02T10:19:18.481Z,32.36
2018-05-02T10:21:46.885Z,32.37
2018-05-02T10:24:16.037Z,32.13
2018-05-02T10:26:44.441Z,33.59
2018-05-02T10:29:12.834Z,33.16
2018-05-02T10:31:42.031Z,34.82
2018-05-02T10:34:10.467Z,32.42
2018-05-02T10:36:39.145Z,31.39
2018-05-02T10:39:07.535Z,32.22
2018-05-02T10:41:35.927Z,31.79
2018-05-02T10:44:04.334Z,30.50
2018-05-02T10:46:32.799Z,32.29
2018-05-02T10:49:01.581Z,30.01
2018-05-02T10:51:30.947Z,31.00
2018-05-02T10:53:59.337Z,30.62
2018-05-02T10:56:28.469Z,29.95
2018-05-02T10:58:57.417Z,32.11
2018-05-02T11:01:26.936Z,30.54
2018-05-02T11:03:56.659Z,31.56
2018-05-02T11:06:26.682Z,30.80
2018-05-02T11:08:55.833Z,29.83
2018-05-02T11:11:25.139Z,29.41
2018-05-02T11:13:53.546Z,30.86
2018-05-02T11:16:22.972Z,30.22
2018-05-02T11:18:52.114Z,32.05
2018-05-02T11:21:20.551Z,33.89
2018-05-02T11:23:50.153Z,36.53
2018-05-02T11:26:18.595Z,33.61
2018-05-02T11:28:46.973Z,30.49
2018-05-02T11:31:15.749Z,31.51
2018-05-02T11:33:44.176Z,30.68
2018-05-02T11:36:12.918Z,30.99
2018-05-02T11:38:41.442Z,33.35
2018-05-02T11:41:09.844Z,31.80
2018-05-02T11:43:38.319Z,33.91
2018-05-02T11:46:06.749Z,31.50
2018-05-02T11:48:35.156Z,30.20
2018-05-02T11:51:03.549Z,31.00
2018-05-02T11:53:32.002Z,31.78
2018-05-02T11:56:00.451Z,33.67
2018-05-02T11:58:28.851Z,33.08
2018-05-02T12:00:58.013Z,32.39
2018-05-02T12:03:26.457Z,31.30
2018-05-02T12:05:54.888Z,29.26
2018-05-02T12:08:23.300Z,29.93
2018-05-02T12:10:51.717Z,29.56
2018-05-02T12:13:20.121Z,31.54
2018-05-02T12:15:48.549Z,31.37
2018-05-02T12:18:16.934Z,31.86
2018-05-02T12:20:45.319Z,30.98
2018-05-02T12:23:13.702Z,29.92
2018-05-02T12:25:42.114Z,31.29
2018-05-02T12:28:10.563Z,31.66
2018-05-02T12:30:38.936Z,32.92
2018-05-02T12:33:07.330Z,31.78
2018-05-02T12:35:35.717Z,31.99
2018-05-02T12:38:05.016Z,31.14
2018-05-02T12:40:34.178Z,31.52
2018-05-02T12:43:02.654Z,31.31
2018-05-02T12:45:31.094Z,31.65
2018-05-02T12:48:00.270Z,32.70
2018-05-02T12:50:28.764Z,33.12
2018-05-02T12:52:57.303Z,33.93
2018-05-02T12:55:25.740Z,31.84
2018-05-02T12:57:54.154Z,31.98
2018-05-02T13:00:23.378Z,30.96
2018-05-02T13:02:51.789Z,32.30
2018-05-02T13:05:20.201Z,34.33
2018-05-02T13:07:48.605Z,33.48
2018-05-02T13:10:17.758Z,31.34
2018-05-02T13:12:46.169Z,33.47
2018-05-02T13:15:14.594Z,32.92
2018-05-02T13:17:43.002Z,33.63
2018-05-02T13:20:11.395Z,33.35
2018-05-02T13:22:39.844Z,33.17
2018-05-02T13:25:08.248Z,32.68
2018-05-02T13:27:36.626Z,32.03
2018-05-02T13:30:04.994Z,34.53
2018-05-02T13:32:33.431Z,30.99
2018-05-02T13:35:02.642Z,31.57
2018-05-02T13:37:31.037Z,31.78
2018-05-02T13:40:00.219Z,33.41
2018-05-02T13:42:28.614Z,31.69
2018-05-02T13:44:57.002Z,31.16
2018-05-02T13:47:25.413Z,30.46
2018-05-02T13:49:53.797Z,30.46
2018-05-02T13:52:22.257Z,31.19
2018-05-02T13:54:51.443Z,30.80
2018-05-02T13:57:19.854Z,32.34
2018-05-02T13:59:48.254Z,32.94
2018-05-02T14:02:16.665Z,34.20
2018-05-02T14:04:45.078Z,33.33
2018-05-02T14:07:13.449Z,34.74
2018-05-02T14:09:42.093Z,35.25
2018-05-02T14:12:10.485Z,33.76
2018-05-02T14:14:38.897Z,32.86
2018-05-02T14:17:07.319Z,32.59
2018-05-02T14:19:36.475Z,33.33
2018-05-02T14:22:04.857Z,32.76
2018-05-02T14:24:33.289Z,31.91
2018-05-02T14:27:02.439Z,32.70
2018-05-02T14:29:30.826Z,33.42
2018-05-02T14:31:59.233Z,32.55
2018-05-02T14:34:27.670Z,34.17
2018-05-02T14:36:56.113Z,33.78
2018-05-02T14:39:24.495Z,33.26
2018-05-02T14:41:53.635Z,32.76
2018-05-02T14:44:22.125Z,34.39
2018-05-02T14:46:50.523Z,32.82
2018-05-02T14:49:18.993Z,33.17
2018-05-02T14:51:47.426Z,32.45
2018-05-02T14:54:15.834Z,33.47
2018-05-02T14:56:45.649Z,31.87
2018-05-02T14:59:14.821Z,32.23
2018-05-02T15:01:44.202Z,31.63
2018-05-02T15:04:12.619Z,31.02
2018-05-02T15:06:41.044Z,31.81
2018-05-02T15:09:09.441Z,31.99
2018-05-02T15:11:38.013Z,31.91
2018-05-02T15:14:06.401Z,32.21
2018-05-02T15:16:34.780Z,31.82
2018-05-02T15:19:03.205Z,32.25
2018-05-02T15:21:31.710Z,32.62
2018-05-02T15:24:00.122Z,32.46
2018-05-02T15:26:28.617Z,32.79
2018-05-02T15:28:57.000Z,32.54
2018-05-02T15:31:25.391Z,31.78
2018-05-02T15:33:53.878Z,32.48
2018-05-02T15:36:22.370Z,32.64
2018-05-02T15:38:50.761Z,32.12
2018-05-02T15:41:19.271Z,32.27
2018-05-02T15:43:47.691Z,32.38
2018-05-02T15:46:16.845Z,32.82
2018-05-02T15:48:45.322Z,32.87
2018-05-02T15:51:13.826Z,33.52
2018-05-02T15:53:42.272Z,32.32
2018-05-02T15:56:11.613Z,33.21
2018-05-02T15:58:40.709Z,32.68
2018-05-02T16:01:09.134Z,33.68
2018-05-02T16:03:38.316Z,33.98
2018-05-02T16:06:06.740Z,34.25
2018-05-02T16:08:35.124Z,34.03
2018-05-02T16:11:04.783Z,34.37
2018-05-02T16:13:33.194Z,34.53
2018-05-02T16:16:02.365Z,34.90
2018-05-02T16:18:30.801Z,34.98
2018-05-02T16:20:59.175Z,35.66
2018-05-02T16:23:27.566Z,36.31
2018-05-02T16:25:56.158Z,35.29
2018-05-02T16:28:24.548Z,35.24
2018-05-02T16:30:52.985Z,35.78
2018-05-02T16:33:21.456Z,36.73
2018-05-02T16:35:49.842Z,36.14
2018-05-02T16:38:18.254Z,36.58
2018-05-02T16:40:47.418Z,36.98
2018-05-02T16:43:15.899Z,36.87
2018-05-02T16:45:44.292Z,36.80
2018-05-02T16:48:12.707Z,36.47
2018-05-02T16:50:41.854Z,36.98
2018-05-02T16:53:10.257Z,37.54
2018-05-02T16:55:38.671Z,38.18
2018-05-02T16:58:07.869Z,38.01
2018-05-02T17:00:37.091Z,37.96
2018-05-02T17:03:05.661Z,38.44
2018-05-02T17:05:34.832Z,38.55
2018-05-02T17:08:03.299Z,38.87
2018-05-02T17:10:31.752Z,38.39
2018-05-02T17:13:00.180Z,38.51
2018-05-02T17:15:28.653Z,38.51
2018-05-02T17:17:57.789Z,38.97
2018-05-02T17:20:26.196Z,40.06
2018-05-02T17:22:55.361Z,41.00
2018-05-02T17:25:23.782Z,41.74
2018-05-02T17:27:52.191Z,42.13
2018-05-02T17:30:20.585Z,43.16
2018-05-02T17:32:48.987Z,43.57
2018-05-02T17:35:18.024Z,43.54
2018-05-02T17:37:47.256Z,41.14
2018-05-02T17:40:15.654Z,40.29
2018-05-02T17:42:44.393Z,40.23
2018-05-02T17:45:13.567Z,39.84
2018-05-02T17:47:42.059Z,39.73
2018-05-02T17:50:10.541Z,39.35
2018-05-02T17:52:38.979Z,39.88
2018-05-02T17:55:07.381Z,39.71
2018-05-02T17:57:35.869Z,39.93
2018-05-02T18:00:04.257Z,39.96
2018-05-02T18:02:32.660Z,40.85
2018-05-02T18:05:01.100Z,40.44
2018-05-02T18:07:29.498Z,40.64
2018-05-02T18:09:58.034Z,41.03
2018-05-02T18:12:27.220Z,41.26
2018-05-02T18:14:55.656Z,41.20
2018-05-02T18:17:24.072Z,41.24
2018-05-02T18:19:52.487Z,41.49
2018-05-02T18:22:21.723Z,41.30
2018-05-02T18:24:50.412Z,41.88
2018-05-02T18:27:18.817Z,42.09
2018-05-02T18:29:47.248Z,42.13
2018-05-02T18:32:15.839Z,42.10
2018-05-02T18:34:44.990Z,42.04
2018-05-02T18:37:13.407Z,42.19
2018-05-02T18:39:41.827Z,42.63
2018-05-02T18:42:11.755Z,42.44
2018-05-02T18:44:40.196Z,42.47
2018-05-02T18:47:08.688Z,42.55
2018-05-02T18:49:37.218Z,42.99
2018-05-02T18:52:05.601Z,43.12
2018-05-02T18:54:33.985Z,42.96
2018-05-02T18:57:02.462Z,42.33
2018-05-02T18:59:30.853Z,42.88
2018-05-02T19:01:59.400Z,43.12
2018-05-02T19:04:28.609Z,43.40
2018-05-02T19:06:57.786Z,43.45
2018-05-02T19:09:27.708Z,43.56
2018-05-02T19:11:56.925Z,44.18
2018-05-02T19:14:26.131Z,43.83
2018-05-02T19:16:55.317Z,43.99
2018-05-02T19:19:29.236Z,44.49
2018-05-02T19:21:58.418Z,44.39
2018-05-02T19:27:26.982Z,44.92
2018-05-02T19:29:55.409Z,45.46
2018-05-02T19:32:30.602Z,44.95
2018-05-02T19:34:59.035Z,44.98
2018-05-02T19:37:28.430Z,45.46
2018-05-02T19:43:07.650Z,46.71
2018-05-02T19:45:36.048Z,46.89
2018-05-02T19:48:04.455Z,46.71
2018-05-02T19:50:34.567Z,46.52
2018-05-02T19:53:04.677Z,46.73
2018-05-02T19:55:33.875Z,46.62
2018-05-02T19:58:02.278Z,46.90
2018-05-02T20:00:36.922Z,47.28
2018-05-02T20:03:05.320Z,46.94
2018-05-02T20:05:33.766Z,47.36
2018-05-02T20:11:10.680Z,47.89
2018-05-02T20:13:44.675Z,48.39
2018-05-02T20:16:13.058Z,48.25
2018-05-02T20:18:41.486Z,48.96
2018-05-02T20:21:09.936Z,48.74
2018-05-02T20:23:38.343Z,48.95
2018-05-02T20:26:06.773Z,49.30
2018-05-02T20:28:35.940Z,49.25
2018-05-02T20:31:04.399Z,48.82
2018-05-02T20:33:32.952Z,49.27
2018-05-02T20:36:02.150Z,49.36
2018-05-02T20:38:31.345Z,49.82
2018-05-02T20:41:00.539Z,50.24
2018-05-02T20:43:28.971Z,50.23
2018-05-02T20:45:57.390Z,50.14
2018-05-02T20:48:25.842Z,50.11
2018-05-02T20:50:54.253Z,50.90
2018-05-02T20:53:22.662Z,50.66
2018-05-02T20:55:51.102Z,51.43
2018-05-02T20:58:19.553Z,51.01
2018-05-02T21:00:48.758Z,51.09
2018-05-02T21:03:17.970Z,51.46
2018-05-02T21:05:46.372Z,52.08
2018-05-02T21:08:14.811Z,52.98
2018-05-02T21:10:43.994Z,52.04
2018-05-02T21:13:12.409Z,53.34
2018-05-02T21:15:40.837Z,53.23
2018-05-02T21:18:09.254Z,54.00
2018-05-02T21:20:37.681Z,53.43
2018-05-02T21:23:06.097Z,54.25
2018-05-02T21:25:34.553Z,53.98
2018-05-02T21:28:02.978Z,54.29
2018-05-02T21:30:31.534Z,55.30
2018-05-02T21:32:59.938Z,55.39
2018-05-02T21:35:28.958Z,56.30
2018-05-02T21:37:57.386Z,55.78
2018-05-02T21:40:25.988Z,56.13
2018-05-02T21:42:54.424Z,56.36
2018-05-02T21:45:23.594Z,56.94
2018-05-02T21:47:52.135Z,58.02
2018-05-02T21:50:20.593Z,57.94
2018-05-02T21:52:49.902Z,57.93
2018-05-02T21:55:19.086Z,57.63
2018-05-02T21:57:47.586Z,57.02
2018-05-02T22:00:16.915Z,57.00
2018-05-02T22:02:45.318Z,57.31
2018-05-02T22:05:13.760Z,57.14
2018-05-02T22:07:42.172Z,56.68
2018-05-02T22:10:10.584Z,56.76
2018-05-02T22:12:39.025Z,56.85
2018-05-02T22:15:08.216Z,57.44
2018-05-02T22:17:37.555Z,57.41
2018-05-02T22:20:06.015Z,57.79
2018-05-02T22:22:34.407Z,58.69
2018-05-02T22:25:02.807Z,58.00
2018-05-02T22:27:31.248Z,58.11
2018-05-02T22:29:59.988Z,58.63
2018-05-02T22:32:28.469Z,58.54
2018-05-02T22:34:57.207Z,58.98
2018-05-02T22:37:25.707Z,59.44
2018-05-02T22:39:54.154Z,59.81
2018-05-02T22:42:23.386Z,59.34
2018-05-02T22:44:51.790Z,59.60
2018-05-02T22:47:20.211Z,58.95
2018-05-02T22:49:48.631Z,60.03
2018-05-02T22:52:17.055Z,59.92
2018-05-02T22:54:45.456Z,60.65
2018-05-02T22:57:13.866Z,60.71
2018-05-02T22:59:42.282Z,61.85
2018-05-02T23:02:10.701Z,61.56
2018-05-02T23:04:39.185Z,61.98
2018-05-02T23:07:07.627Z,62.56
2018-05-02T23:09:37.815Z,62.87
2018-05-02T23:12:06.242Z,63.64
2018-05-02T23:14:35.431Z,64.09
2018-05-02T23:17:03.857Z,64.77
2018-05-02T23:19:32.263Z,65.22
2018-05-02T23:22:00.713Z,66.53
2018-05-02T23:24:29.128Z,66.60
2018-05-02T23:26:57.525Z,67.67
2018-05-02T23:29:26.166Z,68.28
2018-05-02T23:31:54.590Z,67.89
2018-05-02T23:34:23.078Z,68.53
2018-05-02T23:36:51.504Z,68.43
2018-05-02T23:39:20.706Z,68.75
2018-05-02T23:41:49.962Z,68.31
2018-05-02T23:44:18.397Z,68.93
2018-05-02T23:46:46.817Z,69.11
2018-05-02T23:49:15.234Z,68.82
2018-05-02T23:51:44.633Z,68.74
2018-05-02T23:54:13.067Z,68.87
2018-05-02T23:56:41.529Z,68.86
2018-05-02T23:59:10.729Z,69.01
